Terminal Aerodrome Forecast
Issued by NWS

Home | Current Version | Previous Version | Text Only | Print | Product List | Glossary On
Versions: 1 2 3 4 5 6 7 8 9 10 11 12 13 14 15
000
FTUS45 KFGZ 252300
TAFPRC
TAF
KPRC 252320Z 2600/2624 22008KT P6SM VCTS BKN100CB
      TEMPO 2600/2604 VRB15G27KT 6SM -TSRA BKN080CB
     FM260600 VRB05KT P6SM SCT120
     FM261900 23008KT P6SM SCT100 PROB30 2619/2624 6SM -TSRA
      BKN080CB=

USA.gov is the U.S. government's official web portal to all federal, state and local government web resources and services.